createdAt,value
2019-05-26T00:00:19.198Z,98189.09
2019-05-26T00:02:50.887Z,98179.91
2019-05-26T00:05:22.459Z,98170.76
2019-05-26T00:07:54.070Z,98172.41
2019-05-26T00:10:25.629Z,98171.55
2019-05-26T00:12:57.183Z,98171.44
2019-05-26T00:15:28.773Z,98168.57
2019-05-26T00:18:00.336Z,98169.25
2019-05-26T00:20:32.019Z,98155.44
2019-05-26T00:23:03.661Z,98155.20
2019-05-26T00:25:35.262Z,98149.86
2019-05-26T00:28:06.886Z,98148.81
2019-05-26T00:30:38.558Z,98144.52
2019-05-26T00:33:11.118Z,98142.95
2019-05-26T00:35:42.728Z,98139.97
2019-05-26T00:38:14.299Z,98144.86
2019-05-26T00:40:45.924Z,98136.67
2019-05-26T00:43:17.901Z,98138.84
2019-05-26T00:45:50.114Z,98134.55
2019-05-26T00:48:21.692Z,98131.44
2019-05-26T00:50:54.253Z,98136.22
2019-05-26T00:53:25.814Z,98135.25
2019-05-26T00:55:57.409Z,98139.45
2019-05-26T00:58:28.995Z,98142.64
2019-05-26T01:01:00.913Z,98145.14
2019-05-26T01:03:32.536Z,98147.05
2019-05-26T01:06:04.124Z,98143.98
2019-05-26T01:08:35.692Z,98141.36
2019-05-26T01:11:07.286Z,98148.23
2019-05-26T01:13:38.866Z,98155.27
2019-05-26T01:16:10.474Z,98164.05
2019-05-26T01:18:42.062Z,98167.52
2019-05-26T01:21:13.627Z,98158.70
2019-05-26T01:23:45.305Z,98160.38
2019-05-26T01:26:16.879Z,98157.53
2019-05-26T01:28:48.460Z,98159.22
2019-05-26T01:31:20.031Z,98163.36
2019-05-26T01:33:51.630Z,98166.69
2019-05-26T01:36:23.280Z,98175.25
2019-05-26T01:38:56.039Z,98169.88
2019-05-26T01:41:27.649Z,98164.02
2019-05-26T01:43:59.228Z,98169.93
2019-05-26T01:46:30.801Z,98172.02
2019-05-26T01:49:02.356Z,98166.05
2019-05-26T01:51:33.942Z,98169.36
2019-05-26T01:54:05.591Z,98172.54
2019-05-26T01:56:37.236Z,98167.41
2019-05-26T01:59:08.818Z,98162.41
2019-05-26T02:01:40.406Z,98158.83
2019-05-26T02:04:11.989Z,98156.98
2019-05-26T02:06:43.568Z,98158.52
2019-05-26T02:09:16.215Z,98158.02
2019-05-26T02:11:47.813Z,98158.39
2019-05-26T02:14:19.370Z,98157.95
2019-05-26T02:16:50.966Z,98161.72
2019-05-26T02:19:22.524Z,98173.22
2019-05-26T02:21:54.095Z,98164.06
2019-05-26T02:24:25.658Z,98157.75
2019-05-26T02:26:57.234Z,98166.17
2019-05-26T02:29:28.851Z,98165.95
2019-05-26T02:32:00.427Z,98169.39
2019-05-26T02:34:32.007Z,98162.38
2019-05-26T02:37:03.606Z,98166.17
2019-05-26T02:39:35.197Z,98158.89
2019-05-26T02:42:07.053Z,98169.00
2019-05-26T02:44:38.626Z,98165.53
2019-05-26T02:47:10.211Z,98163.41
2019-05-26T02:49:41.793Z,98169.13
2019-05-26T02:52:13.396Z,98165.37
2019-05-26T02:54:44.970Z,98164.34
2019-05-26T02:57:16.552Z,98159.83
2019-05-26T02:59:48.099Z,98160.42
2019-05-26T03:02:19.792Z,98159.59
2019-05-26T03:04:51.383Z,98167.17
2019-05-26T03:07:24.456Z,98174.41
2019-05-26T03:09:57.909Z,98169.19
2019-05-26T03:12:31.798Z,98175.94
2019-05-26T03:15:04.481Z,98169.17
2019-05-26T03:17:36.237Z,98165.95
2019-05-26T03:20:08.214Z,98173.80
2019-05-26T03:22:42.748Z,98174.41
2019-05-26T03:25:14.556Z,98172.98
2019-05-26T03:27:46.404Z,98169.89
2019-05-26T03:30:17.984Z,98174.03
2019-05-26T03:32:49.581Z,98177.34
2019-05-26T03:35:21.175Z,98171.30
2019-05-26T03:37:52.764Z,98176.47
2019-05-26T03:40:24.321Z,98178.70
2019-05-26T03:42:55.904Z,98178.47
2019-05-26T03:46:03.370Z,98170.42
2019-05-26T03:48:34.972Z,98176.69
2019-05-26T03:51:06.569Z,98176.42
2019-05-26T03:53:38.134Z,98176.84
2019-05-26T03:56:09.741Z,98174.72
2019-05-26T03:58:41.321Z,98176.03
2019-05-26T04:01:12.911Z,98178.05
2019-05-26T04:03:44.482Z,98184.34
2019-05-26T04:06:16.171Z,98190.88
2019-05-26T04:08:47.745Z,98193.48
2019-05-26T04:11:19.304Z,98193.38
2019-05-26T04:13:50.898Z,98191.00
2019-05-26T04:16:22.445Z,98194.25
2019-05-26T04:18:54.032Z,98190.57
2019-05-26T04:21:25.576Z,98187.84
2019-05-26T04:23:57.160Z,98189.80
2019-05-26T04:26:28.718Z,98196.77
2019-05-26T04:29:00.312Z,98199.81
2019-05-26T04:31:31.879Z,98193.30
2019-05-26T04:34:03.459Z,98190.36
2019-05-26T04:36:35.057Z,98195.25
2019-05-26T04:39:08.162Z,98187.34
2019-05-26T04:41:39.739Z,98191.80
2019-05-26T04:44:11.315Z,98185.65
2019-05-26T04:46:42.879Z,98192.94
2019-05-26T04:49:15.607Z,98197.95
2019-05-26T04:51:47.179Z,98202.17
2019-05-26T04:54:18.737Z,98199.55
2019-05-26T04:56:50.343Z,98201.64
2019-05-26T04:59:21.947Z,98207.73
2019-05-26T05:01:53.512Z,98214.55
2019-05-26T05:04:25.084Z,98207.80
2019-05-26T05:06:56.683Z,98211.08
2019-05-26T05:09:28.256Z,98207.73
2019-05-26T05:11:59.821Z,98210.36
2019-05-26T05:14:31.380Z,98213.14
2019-05-26T05:17:02.957Z,98216.00
2019-05-26T05:19:34.615Z,98217.91
2019-05-26T05:22:06.225Z,98214.80
2019-05-26T05:24:37.776Z,98218.50
2019-05-26T05:27:09.378Z,98220.04
2019-05-26T05:29:40.938Z,98218.59
2019-05-26T05:32:12.518Z,98226.44
2019-05-26T05:34:44.081Z,98231.20
2019-05-26T05:37:15.779Z,98232.35
2019-05-26T05:39:47.333Z,98229.77
2019-05-26T05:42:18.932Z,98236.56
2019-05-26T05:44:50.504Z,98232.93
2019-05-26T05:47:22.082Z,98238.93
2019-05-26T05:49:53.679Z,98239.56
2019-05-26T05:52:25.264Z,98240.72
2019-05-26T05:54:56.877Z,98238.34
2019-05-26T05:57:28.466Z,98236.09
2019-05-26T06:00:00.020Z,98237.20
2019-05-26T06:02:31.583Z,98241.26
2019-05-26T06:05:03.174Z,98238.03
2019-05-26T06:07:35.723Z,98242.74
2019-05-26T06:10:08.365Z,98247.91
2019-05-26T06:12:39.953Z,98244.46
2019-05-26T06:15:14.378Z,98234.18
2019-05-26T06:17:46.339Z,98243.38
2019-05-26T06:20:18.051Z,98243.18
2019-05-26T06:22:49.646Z,98246.93
2019-05-26T06:25:22.815Z,98241.91
2019-05-26T06:27:54.385Z,98246.83
2019-05-26T06:30:26.467Z,98246.95
2019-05-26T06:32:58.115Z,98242.34
2019-05-26T06:35:32.665Z,98246.34
2019-05-26T06:38:02.949Z,98246.24
2019-05-26T06:40:34.534Z,98245.41
2019-05-26T06:43:06.092Z,98247.89
2019-05-26T06:45:37.772Z,98245.84
2019-05-26T06:48:09.299Z,98254.44
2019-05-26T06:50:40.892Z,98254.20
2019-05-26T06:53:12.479Z,98250.25
2019-05-26T06:55:44.090Z,98249.31
2019-05-26T06:58:15.731Z,98248.33
2019-05-26T07:00:47.337Z,98250.00
2019-05-26T07:03:18.945Z,98250.50
2019-05-26T07:05:50.554Z,98244.20
2019-05-26T07:08:22.118Z,98248.02
2019-05-26T07:10:53.710Z,98246.18
2019-05-26T07:13:25.271Z,98240.51
2019-05-26T07:15:56.854Z,98237.62
2019-05-26T07:18:28.465Z,98244.34
2019-05-26T07:21:00.074Z,98240.11
2019-05-26T07:23:31.720Z,98240.59
2019-05-26T07:26:03.277Z,98236.13
2019-05-26T07:28:34.879Z,98242.86
2019-05-26T07:31:06.594Z,98245.20
2019-05-26T07:33:39.248Z,98246.94
2019-05-26T07:36:10.839Z,98243.61
2019-05-26T07:38:42.437Z,98237.45
2019-05-26T07:41:14.040Z,98238.13
2019-05-26T07:43:45.653Z,98240.91
2019-05-26T07:46:17.254Z,98244.80
2019-05-26T07:48:48.832Z,98245.59
2019-05-26T07:51:21.580Z,98240.80
2019-05-26T07:53:56.125Z,98234.27
2019-05-26T07:56:26.697Z,98227.78
2019-05-26T07:58:58.289Z,98230.72
2019-05-26T08:01:35.815Z,98230.95
2019-05-26T08:04:03.152Z,98231.75
2019-05-26T08:06:34.741Z,98231.42
2019-05-26T08:09:09.328Z,98230.02
2019-05-26T08:11:40.963Z,98227.30
2019-05-26T08:14:12.535Z,98226.44
2019-05-26T08:16:44.181Z,98229.22
2019-05-26T08:19:15.764Z,98229.36
2019-05-26T08:21:47.422Z,98228.22
2019-05-26T08:24:19.002Z,98225.69
2019-05-26T08:26:50.600Z,98218.15
2019-05-26T08:29:22.170Z,98224.44
2019-05-26T08:31:53.778Z,98221.19
2019-05-26T08:34:25.383Z,98222.34
2019-05-26T08:36:58.073Z,98216.16
2019-05-26T08:39:29.688Z,98214.89
2019-05-26T08:42:01.281Z,98210.77
2019-05-26T08:44:32.944Z,98202.72
2019-05-26T08:47:04.536Z,98212.11
2019-05-26T08:49:36.129Z,98207.34
2019-05-26T08:52:07.710Z,98204.92
2019-05-26T08:54:39.329Z,98209.30
2019-05-26T08:57:10.891Z,98202.45
2019-05-26T08:59:42.489Z,98210.89
2019-05-26T09:02:14.075Z,98202.70
2019-05-26T09:04:45.732Z,98204.16
2019-05-26T09:07:17.345Z,98199.20
2019-05-26T09:09:48.987Z,98198.53
2019-05-26T09:12:20.625Z,98204.73
2019-05-26T09:14:52.265Z,98195.53
2019-05-26T09:17:23.880Z,98196.73
2019-05-26T09:19:55.487Z,98197.25
2019-05-26T09:22:27.115Z,98192.59
2019-05-26T09:24:58.730Z,98198.05
2019-05-26T09:27:30.322Z,98193.84
2019-05-26T09:30:01.942Z,98192.70
2019-05-26T09:32:34.613Z,98186.50
2019-05-26T09:35:07.286Z,98183.91
2019-05-26T09:37:38.868Z,98179.27
2019-05-26T09:40:11.146Z,98167.64
2019-05-26T09:42:42.888Z,98177.17
2019-05-26T09:45:16.091Z,98175.45
2019-05-26T09:47:47.781Z,98176.27
2019-05-26T09:50:19.377Z,98174.70
2019-05-26T09:52:51.066Z,98179.65
2019-05-26T09:55:23.990Z,98176.30
2019-05-26T09:57:55.611Z,98166.79
2019-05-26T10:00:27.489Z,98169.41
2019-05-26T10:02:59.131Z,98167.12
2019-05-26T10:05:30.697Z,98160.39
2019-05-26T10:08:02.341Z,98151.38
2019-05-26T10:10:33.965Z,98155.50
2019-05-26T10:13:05.568Z,98157.30
2019-05-26T10:15:37.146Z,98158.97
2019-05-26T10:18:08.747Z,98151.84
2019-05-26T10:20:40.349Z,98155.46
2019-05-26T10:23:11.949Z,98155.50
2019-05-26T10:25:43.827Z,98153.39
2019-05-26T10:28:15.413Z,98146.39
2019-05-26T10:30:46.971Z,98152.34
2019-05-26T10:33:18.587Z,98139.53
2019-05-26T10:35:50.182Z,98137.77
2019-05-26T10:38:21.801Z,98133.20
2019-05-26T10:40:53.684Z,98139.20
2019-05-26T10:43:25.303Z,98139.78
2019-05-26T10:45:56.943Z,98138.74
2019-05-26T10:48:28.615Z,98127.66
2019-05-26T10:51:00.185Z,98133.95
2019-05-26T10:53:32.843Z,98128.92
2019-05-26T10:56:04.427Z,98133.22
2019-05-26T10:58:36.112Z,98126.13
2019-05-26T11:01:07.684Z,98127.28
2019-05-26T11:03:39.278Z,98124.23
2019-05-26T11:06:10.867Z,98122.72
2019-05-26T11:08:42.460Z,98116.56
2019-05-26T11:11:14.060Z,98114.70
2019-05-26T11:13:45.656Z,98119.49
2019-05-26T11:16:17.269Z,98113.92
2019-05-26T11:18:48.863Z,98109.39
2019-05-26T11:21:20.470Z,98106.33
2019-05-26T11:23:52.077Z,98098.48
2019-05-26T11:26:23.631Z,98099.09
2019-05-26T11:28:55.251Z,98103.58
2019-05-26T11:31:26.884Z,98098.55
2019-05-26T11:33:58.473Z,98092.06
2019-05-26T11:36:30.062Z,98080.30
2019-05-26T11:39:01.655Z,98085.74
2019-05-26T11:41:34.515Z,98082.09
2019-05-26T11:44:17.649Z,98072.22
2019-05-26T11:46:39.776Z,98074.01
2019-05-26T11:49:11.394Z,98076.55
2019-05-26T11:51:43.005Z,98070.33
2019-05-26T11:54:14.582Z,98069.70
2019-05-26T11:56:46.159Z,98069.64
2019-05-26T11:59:17.862Z,98068.50
2019-05-26T12:01:49.489Z,98062.87
2019-05-26T12:04:21.123Z,98070.59
2019-05-26T12:06:52.758Z,98059.51
2019-05-26T12:09:24.360Z,98053.53
2019-05-26T12:11:55.955Z,98054.17
2019-05-26T12:14:34.840Z,98053.41
2019-05-26T12:17:00.865Z,98045.66
2019-05-26T12:19:32.453Z,98049.80
2019-05-26T12:22:04.063Z,98040.89
2019-05-26T12:24:35.707Z,98041.30
2019-05-26T12:27:07.586Z,98035.98
2019-05-26T12:29:39.230Z,98031.16
2019-05-26T12:32:10.829Z,98027.02
2019-05-26T12:34:42.399Z,98025.94
2019-05-26T12:37:13.952Z,98015.03
2019-05-26T12:39:45.559Z,98020.14
2019-05-26T12:42:17.329Z,98021.71
2019-05-26T12:44:50.173Z,98009.56
2019-05-26T12:47:21.895Z,98007.09
2019-05-26T12:49:53.512Z,98010.17
2019-05-26T12:52:25.381Z,98011.29
2019-05-26T12:54:57.000Z,98008.23
2019-05-26T12:57:28.592Z,98004.87
2019-05-26T13:00:00.217Z,98005.07
2019-05-26T13:02:31.876Z,97999.41
2019-05-26T13:05:03.461Z,98002.44
2019-05-26T13:07:35.049Z,98006.53
2019-05-26T13:10:07.362Z,98002.53
2019-05-26T13:12:38.954Z,97994.59
2019-05-26T13:15:11.963Z,97995.50
2019-05-26T13:17:43.531Z,97990.26
2019-05-26T13:20:16.657Z,97988.53
2019-05-26T13:22:48.220Z,97988.33
2019-05-26T13:25:21.140Z,97978.99
2019-05-26T13:27:52.729Z,97979.06
2019-05-26T13:30:24.999Z,97979.36
2019-05-26T13:32:56.603Z,97983.30
2019-05-26T13:35:28.189Z,97978.97
2019-05-26T13:37:59.799Z,97978.55
2019-05-26T13:40:31.397Z,97970.89
2019-05-26T13:43:03.009Z,97969.75
2019-05-26T13:45:34.623Z,97969.17
2019-05-26T13:48:06.345Z,97968.28
2019-05-26T13:50:37.948Z,97959.47
2019-05-26T13:53:10.619Z,97957.48
2019-05-26T13:55:42.179Z,97960.80
2019-05-26T13:58:13.806Z,97961.65
2019-05-26T14:00:45.404Z,97964.25
2019-05-26T14:03:18.114Z,97958.06
2019-05-26T14:05:49.745Z,97959.66
2019-05-26T14:08:21.371Z,97961.39
2019-05-26T14:10:53.107Z,97957.42
2019-05-26T14:13:25.155Z,97957.55
2019-05-26T14:15:57.134Z,97958.75
2019-05-26T14:18:31.875Z,97952.34
2019-05-26T14:21:03.493Z,97959.89
2019-05-26T14:23:35.097Z,97952.20
2019-05-26T14:26:06.741Z,97947.88
2019-05-26T14:28:38.354Z,97954.42
2019-05-26T14:31:10.035Z,97951.75
2019-05-26T14:33:41.634Z,97953.09
2019-05-26T14:36:13.251Z,97943.29
2019-05-26T14:38:44.962Z,97941.59
2019-05-26T14:41:16.563Z,97946.09
2019-05-26T14:43:48.137Z,97938.44
2019-05-26T14:46:19.747Z,97939.77
2019-05-26T14:48:51.379Z,97940.42
2019-05-26T14:51:22.964Z,97942.37
2019-05-26T14:53:54.564Z,97930.41
2019-05-26T14:56:26.205Z,97924.70
2019-05-26T14:58:57.805Z,97921.23
2019-05-26T15:01:29.560Z,97926.80
2019-05-26T15:04:01.140Z,97927.70
2019-05-26T15:06:32.854Z,97917.03
2019-05-26T15:09:05.802Z,97919.31
2019-05-26T15:11:38.479Z,97920.64
2019-05-26T15:14:10.083Z,97915.92
2019-05-26T15:16:41.684Z,97910.59
2019-05-26T15:19:13.285Z,97919.34
2019-05-26T15:21:45.854Z,97917.19
2019-05-26T15:24:17.436Z,97913.26
2019-05-26T15:26:49.021Z,97914.78
2019-05-26T15:29:20.603Z,97914.49
2019-05-26T15:31:53.316Z,97910.62
2019-05-26T15:34:24.946Z,97912.90
2019-05-26T15:36:56.525Z,97912.22
2019-05-26T15:39:28.140Z,97911.70
2019-05-26T15:41:59.711Z,97906.55
2019-05-26T15:44:31.341Z,97906.95
2019-05-26T15:47:02.999Z,97908.41
2019-05-26T15:49:34.641Z,97911.47
2019-05-26T15:52:06.236Z,97899.84
2019-05-26T15:54:37.857Z,97896.86
2019-05-26T15:57:09.450Z,97891.36
2019-05-26T15:59:41.059Z,97890.05
2019-05-26T16:02:12.683Z,97896.48
2019-05-26T16:04:45.708Z,97895.34
2019-05-26T16:07:17.390Z,97899.02
2019-05-26T16:09:49.056Z,97884.74
2019-05-26T16:12:20.648Z,97884.64
2019-05-26T16:14:52.256Z,97882.69
2019-05-26T16:17:23.859Z,97882.55
2019-05-26T16:19:55.476Z,97878.75
2019-05-26T16:22:27.080Z,97877.42
2019-05-26T16:24:58.685Z,97879.46
2019-05-26T16:27:30.468Z,97881.18
2019-05-26T16:30:02.087Z,97879.33
2019-05-26T16:32:33.748Z,97883.33
2019-05-26T16:35:05.486Z,97886.52
2019-05-26T16:37:37.166Z,97877.99
2019-05-26T16:40:10.351Z,97881.86
2019-05-26T16:42:41.978Z,97877.23
2019-05-26T16:45:14.709Z,97875.34
2019-05-26T16:47:46.326Z,97871.02
2019-05-26T16:50:18.039Z,97874.07
2019-05-26T16:52:49.670Z,97865.45
2019-05-26T16:55:21.321Z,97867.50
2019-05-26T16:57:53.119Z,97874.55
2019-05-26T17:00:25.622Z,97866.93
2019-05-26T17:02:57.237Z,97867.42
2019-05-26T17:05:29.013Z,97865.59
2019-05-26T17:08:00.693Z,97860.75
2019-05-26T17:10:32.621Z,97853.75
2019-05-26T17:13:04.212Z,97861.98
2019-05-26T17:15:36.799Z,97857.98
2019-05-26T17:18:09.415Z,97861.27
2019-05-26T17:20:41.019Z,97859.32
2019-05-26T17:23:12.636Z,97861.14
2019-05-26T17:25:44.260Z,97861.75
2019-05-26T17:28:15.885Z,97853.59
2019-05-26T17:30:47.515Z,97854.02
2019-05-26T17:33:19.172Z,97850.30
2019-05-26T17:35:50.752Z,97857.53
2019-05-26T17:38:22.359Z,97855.05
2019-05-26T17:40:54.014Z,97859.91
2019-05-26T17:43:25.633Z,97854.34
2019-05-26T17:45:57.239Z,97856.61
2019-05-26T17:48:28.847Z,97856.02
2019-05-26T17:51:00.516Z,97854.67
2019-05-26T17:53:32.141Z,97858.45
2019-05-26T17:56:03.734Z,97856.20
2019-05-26T17:58:35.378Z,97857.16
2019-05-26T18:01:06.959Z,97853.91
2019-05-26T18:03:38.612Z,97851.18
2019-05-26T18:06:11.353Z,97849.95
2019-05-26T18:08:43.059Z,97856.34
2019-05-26T18:11:14.674Z,97854.23
2019-05-26T18:13:46.789Z,97843.63
2019-05-26T18:16:18.572Z,97844.99
2019-05-26T18:18:50.245Z,97839.27
2019-05-26T18:21:21.909Z,97834.19
2019-05-26T18:23:53.518Z,97830.39
2019-05-26T18:26:25.157Z,97832.08
2019-05-26T18:28:56.762Z,97825.50
2019-05-26T18:31:29.298Z,97832.69
2019-05-26T18:34:02.270Z,97836.70
2019-05-26T18:36:33.877Z,97826.98
2019-05-26T18:39:07.379Z,97832.20
2019-05-26T18:41:39.004Z,97830.78
2019-05-26T18:44:10.655Z,97826.67
2019-05-26T18:46:42.257Z,97832.70
2019-05-26T18:49:13.909Z,97825.62
2019-05-26T18:51:45.504Z,97829.17
2019-05-26T18:54:17.162Z,97824.27
2019-05-26T18:56:48.763Z,97821.66
2019-05-26T18:59:20.440Z,97828.16
2019-05-26T19:01:52.056Z,97826.72
2019-05-26T19:04:23.666Z,97822.47
2019-05-26T19:06:55.276Z,97827.50
2019-05-26T19:09:26.917Z,97826.41
2019-05-26T19:11:58.533Z,97824.64
2019-05-26T19:14:30.219Z,97829.36
2019-05-26T19:17:01.854Z,97828.40
2019-05-26T19:19:33.649Z,97825.12
2019-05-26T19:22:05.284Z,97823.84
2019-05-26T19:24:36.937Z,97816.92
2019-05-26T19:27:08.635Z,97828.23
2019-05-26T19:29:41.326Z,97829.77
2019-05-26T19:32:13.003Z,97834.25
2019-05-26T19:34:44.700Z,97832.12
2019-05-26T19:37:16.325Z,97831.63
2019-05-26T19:39:47.937Z,97838.73
2019-05-26T19:42:20.027Z,97836.59
2019-05-26T19:44:51.623Z,97843.87
2019-05-26T19:47:23.256Z,97847.02
2019-05-26T19:49:54.868Z,97842.90
2019-05-26T19:52:26.477Z,97838.73
2019-05-26T19:54:58.078Z,97839.06
2019-05-26T19:57:29.788Z,97846.50
2019-05-26T20:00:03.132Z,97848.81
2019-05-26T20:02:36.540Z,97848.80
2019-05-26T20:05:09.494Z,97854.70
2019-05-26T20:07:41.196Z,97852.70
2019-05-26T20:10:13.627Z,97851.01
2019-05-26T20:12:45.265Z,97846.00
2019-05-26T20:15:17.088Z,97853.06
2019-05-26T20:17:48.703Z,97846.94
2019-05-26T20:20:22.099Z,97845.91
2019-05-26T20:22:53.767Z,97848.86
2019-05-26T20:25:25.389Z,97841.85
2019-05-26T20:27:56.993Z,97842.09
2019-05-26T20:30:28.744Z,97847.00
2019-05-26T20:33:00.473Z,97846.80
2019-05-26T20:35:32.095Z,97853.55
2019-05-26T20:38:03.709Z,97844.82
2019-05-26T20:40:35.392Z,97840.36
2019-05-26T20:43:06.999Z,97839.69
2019-05-26T20:45:38.675Z,97841.63
2019-05-26T20:48:10.381Z,97846.05
2019-05-26T20:50:42.019Z,97844.39
2019-05-26T20:53:13.691Z,97847.09
2019-05-26T20:55:45.630Z,97846.79
2019-05-26T20:58:17.260Z,97843.55
2019-05-26T21:00:48.837Z,97844.66
2019-05-26T21:03:20.465Z,97843.30
2019-05-26T21:05:52.044Z,97845.11
2019-05-26T21:08:23.684Z,97844.14
2019-05-26T21:10:55.270Z,97841.81
2019-05-26T21:13:26.889Z,97845.03
2019-05-26T21:15:58.489Z,97838.08
2019-05-26T21:18:30.103Z,97838.06
2019-05-26T21:21:01.693Z,97842.63
2019-05-26T21:23:33.266Z,97841.30
2019-05-26T21:26:04.856Z,97841.75
2019-05-26T21:28:36.429Z,97847.61
2019-05-26T21:31:08.022Z,97838.84
2019-05-26T21:33:39.618Z,97842.23
2019-05-26T21:36:11.213Z,97838.88
2019-05-26T21:38:42.778Z,97841.94
2019-05-26T21:41:15.381Z,97843.03
2019-05-26T21:43:46.945Z,97836.23
2019-05-26T21:46:18.547Z,97836.23
2019-05-26T21:48:50.120Z,97835.36
2019-05-26T21:51:21.803Z,97836.30
2019-05-26T21:53:53.365Z,97835.72
2019-05-26T21:56:24.974Z,97842.01
2019-05-26T21:58:56.544Z,97842.67
2019-05-26T22:01:28.398Z,97840.70
2019-05-26T22:03:59.962Z,97842.59
2019-05-26T22:06:31.576Z,97835.73
2019-05-26T22:09:03.180Z,97834.71
2019-05-26T22:11:34.813Z,97827.42
2019-05-26T22:14:06.370Z,97830.34
2019-05-26T22:16:39.050Z,97837.06
2019-05-26T22:19:10.673Z,97832.09
2019-05-26T22:21:42.278Z,97827.72
2019-05-26T22:24:13.888Z,97836.89
2019-05-26T22:26:45.449Z,97837.03
2019-05-26T22:29:17.042Z,97836.14
2019-05-26T22:31:48.666Z,97835.58
2019-05-26T22:34:20.246Z,97834.83
2019-05-26T22:36:51.843Z,97832.16
2019-05-26T22:39:23.421Z,97832.04
2019-05-26T22:41:55.016Z,97835.63
2019-05-26T22:44:26.601Z,97828.66
2019-05-26T22:46:58.291Z,97827.41
2019-05-26T22:49:29.846Z,97832.95
2019-05-26T22:52:01.421Z,97822.71
2019-05-26T22:54:32.990Z,97827.07
2019-05-26T22:57:04.592Z,97827.70
2019-05-26T22:59:36.169Z,97831.08
2019-05-26T23:02:07.757Z,97832.88
2019-05-26T23:04:39.348Z,97833.38
2019-05-26T23:07:10.940Z,97828.41
2019-05-26T23:09:42.512Z,97826.52
2019-05-26T23:12:14.080Z,97834.23
2019-05-26T23:14:45.633Z,97815.86
2019-05-26T23:17:17.187Z,97821.87
2019-05-26T23:19:48.766Z,97821.25
2019-05-26T23:22:20.330Z,97820.98
2019-05-26T23:24:51.894Z,97814.69
2019-05-26T23:27:23.497Z,97810.53
2019-05-26T23:29:55.065Z,97811.34
2019-05-26T23:32:26.669Z,97811.48
2019-05-26T23:34:58.243Z,97811.98
2019-05-26T23:37:29.786Z,97813.56
2019-05-26T23:40:01.391Z,97809.67
2019-05-26T23:42:33.008Z,97816.19
2019-05-26T23:45:04.749Z,97808.72
2019-05-26T23:47:36.443Z,97806.69
2019-05-26T23:50:08.104Z,97802.06
2019-05-26T23:52:39.673Z,97800.94
2019-05-26T23:55:11.543Z,97796.59
2019-05-26T23:57:43.110Z,97798.17
